Time;durP1;ratioP1;P1;durP2;ratioP2;P2;SDS_P1;SDS_P2;PMS_P1;PMS_P2;Temp;Humidity;BMP_temperature;BMP_pressure;BME280_temperature;BME280_humidity;BME280_pressure;Samples;Min_cycle;Max_cycle;Signal;HPM_P1;HPM_P2
2023/07/03 00:01:41;;;;;;;11.95;2.97;;;;;;;16.42;100.00;99131.00;5057447;28;20047;-72
2023/07/03 00:04:10;;;;;;;21.25;4.70;;;;;;;16.49;100.00;99130.72;5057104;28;20037;-72
2023/07/03 00:06:37;;;;;;;12.10;3.28;;;;;;;16.54;100.00;99140.72;5057227;28;20055;-71
2023/07/03 00:09:03;;;;;;;21.45;4.32;;;;;;;16.59;100.00;99118.97;4982858;28;20045;-72
2023/07/03 00:11:29;;;;;;;24.23;5.13;;;;;;;16.78;100.00;99132.75;4994477;28;20033;-71
2023/07/03 00:13:54;;;;;;;24.45;5.00;;;;;;;16.74;100.00;99140.59;5059521;28;20405;-72
2023/07/03 00:16:19;;;;;;;22.10;4.35;;;;;;;16.66;100.00;99128.44;5058801;28;20036;-72
2023/07/03 00:18:47;;;;;;;19.15;4.82;;;;;;;16.66;100.00;99142.00;5040864;28;20036;-71
2023/07/03 00:21:13;;;;;;;23.92;4.50;;;;;;;16.59;100.00;99140.72;5038898;28;20060;-71
2023/07/03 00:23:39;;;;;;;14.98;4.78;;;;;;;16.62;100.00;99142.84;5040544;28;20113;-72
2023/07/03 00:26:04;;;;;;;19.75;4.75;;;;;;;16.64;100.00;99137.94;4972742;28;20042;-72
2023/07/03 00:28:29;;;;;;;17.08;4.07;;;;;;;16.68;100.00;99139.81;4973759;28;20039;-72
2023/07/03 00:30:55;;;;;;;20.45;5.00;;;;;;;16.51;100.00;99116.84;5040917;28;20345;-72
2023/07/03 00:33:20;;;;;;;19.83;4.60;;;;;;;16.68;100.00;99133.56;5040342;28;20117;-72
2023/07/03 00:35:46;;;;;;;16.63;3.05;;;;;;;16.45;100.00;99137.75;5048018;28;20027;-72
2023/07/03 00:38:11;;;;;;;19.85;4.50;;;;;;;16.41;100.00;99142.13;5041667;28;20127;-72
2023/07/03 00:40:37;;;;;;;12.85;3.50;;;;;;;16.14;100.00;99126.22;5076181;28;20020;-72
2023/07/03 00:43:03;;;;;;;16.25;3.58;;;;;;;16.16;100.00;99132.19;5075946;28;20082;-72
2023/07/03 00:45:32;;;;;;;14.60;3.47;;;;;;;16.08;100.00;99113.75;5077289;28;20036;-72
2023/07/03 00:47:58;;;;;;;19.08;4.13;;;;;;;16.03;100.00;99111.88;5042428;28;20090;-72
2023/07/03 00:50:23;;;;;;;14.82;4.13;;;;;;;16.07;100.00;99129.22;5041743;28;20032;-72
2023/07/03 00:52:55;;;;;;;17.42;4.57;;;;;;;16.02;100.00;99129.22;5057736;28;20104;-72
2023/07/03 00:55:22;;;;;;;24.75;4.63;;;;;;;16.14;100.00;99134.38;5057995;28;20086;-72
2023/07/03 00:57:48;;;;;;;17.58;4.30;;;;;;;15.97;100.00;99138.22;5057676;28;20031;-72
2023/07/03 01:00:13;;;;;;;15.88;4.55;;;;;;;16.04;100.00;99131.69;5073889;28;20028;-72
2023/07/03 01:02:46;;;;;;;19.33;4.72;;;;;;;16.12;100.00;99139.25;5058426;28;20029;-72
2023/07/03 01:05:22;;;;;;;19.25;3.97;;;;;;;15.88;100.00;99134.44;5057536;28;20036;-72
2023/07/03 01:07:48;;;;;;;21.10;4.60;;;;;;;16.10;100.00;99127.88;5058107;28;20035;-72
2023/07/03 01:10:19;;;;;;;24.85;5.18;;;;;;;15.96;100.00;99104.03;5076924;28;20024;-72
2023/07/03 01:12:48;;;;;;;15.40;3.72;;;;;;;15.83;100.00;99107.34;5078016;28;20440;-72
2023/07/03 01:15:19;;;;;;;22.98;4.50;;;;;;;16.02;100.00;99112.16;5075775;28;20024;-71
2023/07/03 01:17:50;;;;;;;16.00;3.47;;;;;;;16.07;100.00;99136.56;5058057;28;20029;-72
2023/07/03 01:20:18;;;;;;;18.95;3.53;;;;;;;15.92;100.00;99132.78;5058025;28;20063;-72
2023/07/03 01:23:06;;;;;;;21.17;4.28;;;;;;;16.09;100.00;99126.22;5075974;28;20100;-72
2023/07/03 01:25:34;;;;;;;16.02;3.80;;;;;;;16.11;100.00;99126.78;5074422;28;20050;-72
2023/07/03 01:28:03;;;;;;;20.75;4.38;;;;;;;15.94;100.00;99087.22;4994564;28;20154;-71
2023/07/03 01:30:31;;;;;;;17.92;4.07;;;;;;;16.21;100.00;99124.03;5043421;28;20038;-72
2023/07/03 01:32:59;;;;;;;17.58;4.60;;;;;;;16.18;100.00;99109.09;5039112;28;20027;-72
2023/07/03 01:35:25;;;;;;;18.50;3.90;;;;;;;16.36;100.00;99129.41;5023627;28;20034;-72
2023/07/03 01:37:53;;;;;;;15.75;3.17;;;;;;;16.25;100.00;99127.81;4972681;28;20046;-72
2023/07/03 01:40:23;;;;;;;16.85;3.70;;;;;;;16.19;100.00;99118.06;5038913;28;20418;-72
2023/07/03 01:42:50;;;;;;;16.80;2.90;;;;;;;16.24;100.00;99131.63;5073157;28;20054;-72
2023/07/03 01:45:15;;;;;;;20.58;3.58;;;;;;;16.12;100.00;99103.97;5060670;28;20069;-72
2023/07/03 01:47:41;;;;;;;24.02;4.65;;;;;;;16.14;100.00;99123.50;5021197;28;20114;-71
2023/07/03 01:50:11;;;;;;;17.02;3.55;;;;;;;16.08;100.00;99097.47;4971569;28;20084;-71
2023/07/03 01:52:41;;;;;;;14.10;3.10;;;;;;;16.04;100.00;99128.97;5039789;28;20052;-71
2023/07/03 01:55:16;;;;;;;15.40;2.33;;;;;;;15.93;100.00;99126.28;5073402;28;20027;-71
2023/07/03 01:57:58;;;;;;;14.10;2.92;;;;;;;15.96;100.00;99108.66;5073308;28;20067;-72
2023/07/03 02:00:32;;;;;;;18.35;3.60;;;;;;;16.19;100.00;99128.91;5071597;28;20031;-72
2023/07/03 02:03:02;;;;;;;11.87;2.97;;;;;;;16.01;100.00;99114.06;5003673;28;20034;-72
2023/07/03 02:05:30;;;;;;;16.60;3.60;;;;;;;16.06;100.00;99119.47;4972133;28;20551;-72
2023/07/03 02:07:59;;;;;;;11.00;3.38;;;;;;;16.11;100.00;99105.06;5056949;28;20365;-71
2023/07/03 02:10:25;;;;;;;19.70;4.00;;;;;;;16.10;100.00;99100.75;5045125;28;20387;-72
2023/07/03 02:12:51;;;;;;;17.38;3.70;;;;;;;16.10;100.00;99109.69;5037131;28;20031;-72
2023/07/03 02:15:16;;;;;;;12.48;3.22;;;;;;;16.07;100.00;99121.09;4972222;28;20034;-71
2023/07/03 02:17:42;;;;;;;16.00;3.60;;;;;;;16.07;100.00;99106.72;4972370;28;20076;-71
2023/07/03 02:20:14;;;;;;;20.58;3.80;;;;;;;16.15;100.00;99119.69;5038953;28;20034;-71
2023/07/03 02:22:42;;;;;;;16.70;3.55;;;;;;;16.10;100.00;99123.25;4972472;28;20026;-71
2023/07/03 02:25:09;;;;;;;14.82;3.60;;;;;;;16.16;100.00;99110.50;4971842;28;20037;-71
2023/07/03 02:27:34;;;;;;;16.20;3.70;;;;;;;16.21;100.00;99113.16;5038432;28;20436;-72
2023/07/03 02:30:00;;;;;;;19.23;4.05;;;;;;;16.15;100.00;99098.00;5055274;28;20032;-73
2023/07/03 02:32:39;;;;;;;17.25;3.92;;;;;;;16.16;100.00;99122.16;5056987;28;20024;-71
2023/07/03 02:35:06;;;;;;;18.55;3.88;;;;;;;16.17;100.00;99128.38;5071903;28;20043;-71
2023/07/03 02:37:32;;;;;;;13.48;3.58;;;;;;;16.14;100.00;99121.59;5073285;28;20020;-71
2023/07/03 02:39:57;;;;;;;23.13;3.50;;;;;;;16.16;100.00;99119.44;5073270;28;20016;-72
2023/07/03 02:42:23;;;;;;;16.50;3.10;;;;;;;16.07;100.00;99117.56;5055473;28;20111;-71
2023/07/03 02:44:48;;;;;;;20.90;3.75;;;;;;;15.94;100.00;99111.63;5052168;28;20053;-72
2023/07/03 02:47:14;;;;;;;16.05;3.03;;;;;;;15.85;100.00;99129.56;5053585;28;20025;-72
2023/07/03 02:49:41;;;;;;;17.35;3.05;;;;;;;15.79;100.00;99117.09;5019079;28;20463;-72
2023/07/03 02:52:07;;;;;;;15.73;3.17;;;;;;;15.85;100.00;99115.19;5053164;28;20017;-72
2023/07/03 02:54:33;;;;;;;24.63;4.20;;;;;;;15.85;100.00;99132.25;5035321;28;20024;-72
2023/07/03 02:56:58;;;;;;;17.00;4.63;;;;;;;15.86;100.00;99120.34;5054012;28;20072;-73
2023/07/03 02:59:24;;;;;;;20.92;3.55;;;;;;;15.71;100.00;99120.38;5037186;28;20033;-74
2023/07/03 03:01:49;;;;;;;21.25;4.95;;;;;;;15.65;100.00;99121.44;5036741;28;20033;-72
2023/07/03 03:04:16;;;;;;;22.33;4.63;;;;;;;15.73;100.00;99105.47;5038140;28;20108;-72
2023/07/03 03:06:43;;;;;;;21.23;3.72;;;;;;;15.52;100.00;99112.75;5037421;28;20115;-72
2023/07/03 03:09:09;;;;;;;16.90;3.20;;;;;;;15.43;100.00;99090.03;5037584;28;20031;-72
2023/07/03 03:11:35;;;;;;;14.20;3.03;;;;;;;15.31;100.00;99086.78;5054375;28;20020;-72
2023/07/03 03:14:00;;;;;;;16.23;3.38;;;;;;;15.20;100.00;99077.84;5054812;28;20496;-72
2023/07/03 03:16:26;;;;;;;15.82;3.65;;;;;;;15.50;100.00;99098.69;5037057;28;20090;-72
2023/07/03 03:18:52;;;;;;;15.82;3.53;;;;;;;15.43;100.00;99097.31;5054527;28;20041;-72
2023/07/03 03:21:17;;;;;;;15.90;3.75;;;;;;;15.52;100.00;99106.53;5020384;28;20119;-71
2023/07/03 03:23:43;;;;;;;15.00;3.70;;;;;;;15.60;100.00;99113.31;5053825;28;20055;-72
2023/07/03 03:26:08;;;;;;;13.57;4.00;;;;;;;15.62;100.00;99108.41;5054308;28;20032;-72
2023/07/03 03:28:34;;;;;;;25.80;4.53;;;;;;;15.68;100.00;99099.22;5024301;28;20021;-72
2023/07/03 03:30:59;;;;;;;20.17;4.28;;;;;;;15.62;100.00;99097.56;5035742;28;20029;-72
2023/07/03 03:33:25;;;;;;;14.65;3.78;;;;;;;15.61;100.00;99114.94;5054610;28;20028;-72
2023/07/03 03:35:51;;;;;;;16.85;3.67;;;;;;;15.63;100.00;99118.16;5020624;28;20561;-72
2023/07/03 03:38:16;;;;;;;11.77;3.00;;;;;;;15.44;100.00;99123.34;5018990;28;20056;-72
2023/07/03 03:40:53;;;;;;;13.68;2.63;;;;;;;15.46;100.00;99113.88;5018468;28;20032;-72
2023/07/03 03:43:18;;;;;;;14.15;2.88;;;;;;;15.39;100.00;99107.09;5035444;28;20563;-72
2023/07/03 03:45:52;;;;;;;16.08;3.25;;;;;;;15.38;100.00;99089.22;5019699;28;20114;-72
2023/07/03 03:48:18;;;;;;;17.92;3.38;;;;;;;15.37;100.00;99088.41;5035617;28;20492;-72
2023/07/03 03:50:43;;;;;;;16.23;3.10;;;;;;;15.56;100.00;99090.53;5037291;28;20043;-72
2023/07/03 03:53:09;;;;;;;15.90;3.65;;;;;;;15.60;100.00;99097.06;5053950;28;20032;-72
2023/07/03 03:55:34;;;;;;;17.98;3.58;;;;;;;15.57;100.00;99078.63;5018907;28;20413;-72
2023/07/03 03:58:00;;;;;;;14.18;3.28;;;;;;;15.55;100.00;99081.59;5019414;28;20434;-72
2023/07/03 04:00:26;;;;;;;13.35;3.08;;;;;;;15.56;100.00;99091.34;5056525;28;20043;-71
2023/07/03 04:02:52;;;;;;;12.50;2.88;;;;;;;15.45;100.00;99095.97;5040502;28;20057;-72
2023/07/03 04:05:17;;;;;;;17.30;3.35;;;;;;;15.65;100.00;99097.03;5056397;28;20079;-72
2023/07/03 04:07:43;;;;;;;14.43;2.45;;;;;;;15.66;100.00;99106.78;5056335;28;20033;-72
2023/07/03 04:10:09;;;;;;;14.55;3.33;;;;;;;15.65;100.00;99105.16;5058574;28;20394;-72
2023/07/03 04:12:34;;;;;;;8.77;2.30;;;;;;;15.57;100.00;99105.72;5058556;28;20052;-72
2023/07/03 04:15:00;;;;;;;8.93;2.35;;;;;;;15.52;100.00;99101.91;5022637;28;20033;-72
2023/07/03 04:17:25;;;;;;;12.20;3.00;;;;;;;15.66;100.00;99098.63;5039970;28;20487;-72
2023/07/03 04:19:51;;;;;;;17.27;3.67;;;;;;;15.70;100.00;99091.63;5022220;28;20055;-72
2023/07/03 04:22:16;;;;;;;14.02;3.53;;;;;;;15.68;100.00;99102.75;5038567;28;20106;-72
2023/07/03 04:24:42;;;;;;;13.93;3.40;;;;;;;15.77;100.00;99111.13;5022140;28;20028;-71
2023/07/03 04:27:08;;;;;;;9.48;2.50;;;;;;;15.79;100.00;99106.25;5039248;28;20074;-71
2023/07/03 04:29:33;;;;;;;14.80;3.30;;;;;;;15.74;100.00;99101.66;5022218;28;20036;-72
2023/07/03 04:31:59;;;;;;;12.23;2.47;;;;;;;15.62;100.00;99103.81;5023158;28;20033;-72
2023/07/03 04:34:24;;;;;;;8.40;2.33;;;;;;;15.63;100.00;99091.06;5042519;28;20021;-71
2023/07/03 04:36:50;;;;;;;14.65;3.03;;;;;;;15.64;100.00;99106.25;5039205;28;20048;-71
2023/07/03 04:39:15;;;;;;;16.02;2.90;;;;;;;15.64;100.00;99103.53;5039432;28;20032;-72
2023/07/03 04:41:41;;;;;;;14.10;3.33;;;;;;;15.73;100.00;99091.91;5058155;28;20037;-71
2023/07/03 04:44:12;;;;;;;18.30;3.38;;;;;;;15.86;100.00;99098.66;5057059;28;20059;-71
2023/07/03 04:46:38;;;;;;;12.85;2.30;;;;;;;15.80;100.00;99090.81;5055655;28;20075;-71
2023/07/03 04:49:04;;;;;;;14.40;2.75;;;;;;;15.94;100.00;99095.34;5038688;28;20044;-72
2023/07/03 04:51:30;;;;;;;12.93;3.38;;;;;;;15.87;100.00;99097.56;5056619;28;20021;-71
2023/07/03 04:54:00;;;;;;;18.48;3.28;;;;;;;15.77;100.00;99105.72;5037196;28;20361;-72
2023/07/03 04:56:26;;;;;;;14.15;3.13;;;;;;;15.87;100.00;99099.47;5057130;28;20032;-72
2023/07/03 04:58:52;;;;;;;16.90;3.25;;;;;;;15.80;100.00;99107.88;5021395;28;20052;-72
2023/07/03 05:01:18;;;;;;;14.82;3.28;;;;;;;15.73;100.00;99101.94;5037920;28;20484;-72
2023/07/03 05:03:43;;;;;;;19.88;3.90;;;;;;;15.70;100.00;99088.94;5056452;28;20028;-72
2023/07/03 05:06:10;;;;;;;19.90;4.07;;;;;;;15.51;100.00;99081.31;5039657;28;20032;-72
2023/07/03 05:08:36;;;;;;;15.77;3.75;;;;;;;15.68;100.00;99093.81;5057219;28;20078;-73
2023/07/03 05:11:01;;;;;;;18.60;3.92;;;;;;;15.61;100.00;99082.41;5021285;28;20033;-72
2023/07/03 05:13:27;;;;;;;18.65;4.20;;;;;;;15.67;100.00;99101.13;5022550;28;20036;-72
2023/07/03 05:15:54;;;;;;;17.33;3.92;;;;;;;15.64;100.00;99096.22;5024339;28;20375;-72
2023/07/03 05:18:20;;;;;;;15.45;4.10;;;;;;;15.59;100.00;99095.41;5044379;28;20036;-73
2023/07/03 05:20:47;;;;;;;22.38;4.68;;;;;;;15.63;100.00;99091.91;5043134;28;20036;-72
2023/07/03 05:23:15;;;;;;;18.05;3.67;;;;;;;15.46;100.00;99084.06;5040173;28;20021;-72
2023/07/03 05:25:50;;;;;;;18.58;4.55;;;;;;;15.54;100.00;99090.81;5042840;28;20079;-72
2023/07/03 05:28:15;;;;;;;21.58;4.55;;;;;;;15.59;100.00;99098.94;5029429;28;20040;-72
2023/07/03 05:30:41;;;;;;;20.33;4.60;;;;;;;15.65;100.00;99114.09;5003996;28;20033;-72
2023/07/03 05:33:06;;;;;;;17.52;4.10;;;;;;;15.54;100.00;99093.53;5038153;28;20080;-72
2023/07/03 05:35:32;;;;;;;21.25;4.15;;;;;;;15.59;100.00;99117.09;5020615;28;20084;-71
2023/07/03 05:38:00;;;;;;;13.77;4.00;;;;;;;15.64;100.00;99087.28;5056892;28;20041;-72
2023/07/03 05:40:27;;;;;;;16.15;3.58;;;;;;;15.68;100.00;99110.06;5043080;28;20033;-71
2023/07/03 05:42:53;;;;;;;11.07;3.42;;;;;;;15.87;100.00;99107.59;5055352;28;20033;-72
2023/07/03 05:45:18;;;;;;;15.13;3.75;;;;;;;15.81;100.00;99114.91;5038247;28;20041;-72
2023/07/03 05:47:44;;;;;;;14.48;4.03;;;;;;;15.89;100.00;99127.94;5039272;28;20115;-72
2023/07/03 05:50:09;;;;;;;15.40;3.92;;;;;;;15.81;100.00;99117.63;5055685;28;20081;-72
2023/07/03 05:52:39;;;;;;;13.43;3.90;;;;;;;15.80;100.00;99137.72;5020967;28;20438;-72
2023/07/03 05:55:05;;;;;;;18.02;4.10;;;;;;;15.77;100.00;99137.44;5036764;28;20035;-72
2023/07/03 05:57:30;;;;;;;14.93;3.65;;;;;;;15.57;100.00;99133.66;5054586;28;20025;-74
2023/07/03 05:59:56;;;;;;;20.48;5.05;;;;;;;15.64;100.00;99130.66;5034411;28;20119;-73
2023/07/03 06:02:21;;;;;;;17.60;4.07;;;;;;;15.67;100.00;99135.56;5003591;28;20021;-71
2023/07/03 06:04:47;;;;;;;12.52;3.17;;;;;;;15.51;100.00;99138.25;5057842;28;20033;-71
2023/07/03 06:07:12;;;;;;;11.45;2.92;;;;;;;15.20;100.00;99117.69;5057865;28;20029;-74
2023/07/03 06:09:38;;;;;;;19.27;3.95;;;;;;;15.24;100.00;99122.28;5059249;28;20545;-74
2023/07/03 06:12:04;;;;;;;21.10;4.63;;;;;;;15.38;100.00;99129.88;5026913;28;20032;-76
2023/07/03 06:14:31;;;;;;;18.98;4.88;;;;;;;15.67;100.00;99146.41;5029079;28;20369;-73
2023/07/03 06:16:58;;;;;;;23.17;4.90;;;;;;;15.71;100.00;99142.06;5057187;28;20016;-72
2023/07/03 06:19:25;;;;;;;24.55;5.25;;;;;;;15.83;100.00;99130.94;5021742;28;20032;-74
2023/07/03 06:21:50;;;;;;;25.98;5.45;;;;;;;15.81;100.00;99138.53;5045288;28;20029;-76
2023/07/03 06:24:17;;;;;;;16.50;4.20;;;;;;;15.77;100.00;99140.97;5046548;28;20075;-75
2023/07/03 06:26:43;;;;;;;15.50;4.38;;;;;;;15.52;100.00;99139.06;5063836;28;20029;-76
2023/07/03 06:29:10;;;;;;;11.32;3.28;;;;;;;15.56;100.00;99142.84;5038080;28;20039;-72
2023/07/03 06:31:36;;;;;;;17.92;4.43;;;;;;;15.72;100.00;99127.41;5058970;28;20025;-73
2023/07/03 06:34:03;;;;;;;12.85;4.13;;;;;;;15.57;100.00;99147.19;5040933;28;20388;-74
2023/07/03 06:36:29;;;;;;;19.77;4.75;;;;;;;15.62;100.00;99143.66;5064380;28;20036;-73
2023/07/03 06:38:56;;;;;;;12.50;3.35;;;;;;;15.62;100.00;99128.19;5060685;28;20056;-75
2023/07/03 06:41:26;;;;;;;17.13;4.43;;;;;;;15.70;100.00;99137.72;5024233;28;21070;-73
2023/07/03 06:43:52;;;;;;;12.88;3.40;;;;;;;15.77;100.00;99143.69;5034940;28;20056;-75
2023/07/03 06:46:18;;;;;;;20.38;4.65;;;;;;;15.87;100.00;99149.09;5015039;28;20033;-74
2023/07/03 06:48:43;;;;;;;14.75;3.88;;;;;;;15.69;100.00;99157.78;5056875;28;20037;-73
2023/07/03 06:51:11;;;;;;;10.93;3.00;;;;;;;15.63;100.00;99177.81;5040218;28;20096;-76
2023/07/03 06:53:37;;;;;;;16.95;3.60;;;;;;;15.39;100.00;99153.97;5058010;28;20123;-74
2023/07/03 06:56:03;;;;;;;11.68;3.78;;;;;;;15.44;100.00;99183.78;5036811;28;20119;-77
2023/07/03 06:58:30;;;;;;;17.02;3.97;;;;;;;15.53;100.00;99186.78;5039281;28;20029;-74
2023/07/03 07:00:56;;;;;;;24.48;4.65;;;;;;;15.44;100.00;99191.13;5040705;28;20025;-78
2023/07/03 07:03:22;;;;;;;18.90;3.85;;;;;;;15.44;100.00;99178.38;5040167;28;20025;-78
2023/07/03 07:05:48;;;;;;;24.45;4.40;;;;;;;15.22;100.00;99134.47;5040170;28;20028;-74
2023/07/03 07:08:16;;;;;;;25.00;5.13;;;;;;;15.66;100.00;99163.72;5040556;28;20610;-75
2023/07/03 07:10:45;;;;;;;12.25;3.00;;;;;;;15.43;100.00;99184.91;5040198;28;20029;-76
2023/07/03 07:13:12;;;;;;;13.32;2.88;;;;;;;15.30;100.00;99180.00;5040225;28;20111;-74
2023/07/03 07:15:39;;;;;;;19.42;4.10;;;;;;;15.39;100.00;99197.34;5054572;28;20072;-73
2023/07/03 07:18:06;;;;;;;19.55;3.95;;;;;;;15.25;100.00;99178.09;5055963;28;20056;-73
2023/07/03 07:20:39;;;;;;;20.92;4.35;;;;;;;15.43;100.00;99192.19;5067737;28;20029;-74
2023/07/03 07:23:06;;;;;;;21.60;4.50;;;;;;;15.51;100.00;99175.41;5065366;28;20085;-75
2023/07/03 07:25:32;;;;;;;18.77;4.47;;;;;;;15.55;100.00;99192.75;5059817;28;20029;-74
2023/07/03 07:27:57;;;;;;;21.48;4.50;;;;;;;15.55;100.00;99191.94;5041592;28;20048;-74
2023/07/03 07:30:23;;;;;;;26.15;4.60;;;;;;;15.61;100.00;99191.66;5041355;28;20144;-72
2023/07/03 07:32:52;;;;;;;23.67;4.45;;;;;;;15.75;100.00;99191.94;5058373;28;20030;-73
2023/07/03 07:35:18;;;;;;;19.20;4.50;;;;;;;15.73;100.00;99177.88;5061520;28;20082;-72
2023/07/03 07:37:43;;;;;;;20.90;4.25;;;;;;;15.72;100.00;99195.19;5044331;28;20036;-74
2023/07/03 07:40:10;;;;;;;21.00;4.57;;;;;;;15.76;100.00;99188.16;5061460;28;20040;-75
2023/07/03 07:42:37;;;;;;;17.30;3.88;;;;;;;15.84;100.00;99189.50;5044933;28;20040;-74
2023/07/03 07:45:03;;;;;;;20.45;4.45;;;;;;;15.85;100.00;99174.84;5054664;28;20068;-74
2023/07/03 07:47:29;;;;;;;18.95;4.40;;;;;;;15.84;100.00;99182.19;5042083;28;20036;-75
2023/07/03 07:49:55;;;;;;;12.13;3.08;;;;;;;15.73;100.00;99156.97;5039897;28;20037;-73
2023/07/03 07:52:23;;;;;;;16.80;4.05;;;;;;;15.81;100.00;99185.44;5042334;28;20048;-73
2023/07/03 07:54:53;;;;;;;15.50;3.53;;;;;;;15.79;100.00;99197.63;5008997;28;20033;-73
2023/07/03 07:57:19;;;;;;;13.85;3.30;;;;;;;15.58;100.00;99175.13;5027485;28;20023;-73
2023/07/03 07:59:44;;;;;;;14.57;2.72;;;;;;;15.59;100.00;99207.38;5058457;28;20100;-73
2023/07/03 08:02:10;;;;;;;16.92;3.55;;;;;;;15.65;100.00;99205.47;5040643;28;20060;-73
2023/07/03 08:04:35;;;;;;;15.40;3.75;;;;;;;15.83;100.00;99206.88;5042396;28;20435;-74
2023/07/03 08:07:00;;;;;;;11.73;3.38;;;;;;;15.75;100.00;99210.94;5061378;28;20043;-73
2023/07/03 08:09:26;;;;;;;14.85;3.67;;;;;;;16.00;100.00;99220.16;5061347;28;20021;-73
2023/07/03 08:11:51;;;;;;;17.50;4.10;;;;;;;16.01;100.00;99209.00;5063093;28;20025;-74
2023/07/03 08:14:17;;;;;;;21.35;3.50;;;;;;;16.11;100.00;99219.03;5044963;28;20467;-74
2023/07/03 08:16:43;;;;;;;15.13;3.25;;;;;;;16.26;100.00;99220.88;5045013;28;20056;-73
2023/07/03 08:19:08;;;;;;;14.25;3.15;;;;;;;16.24;100.00;99212.22;5025017;28;20029;-73
2023/07/03 08:21:34;;;;;;;16.63;3.25;;;;;;;16.25;100.00;99216.56;5013015;28;20033;-74
2023/07/03 08:23:59;;;;;;;14.27;3.33;;;;;;;16.21;100.00;99219.81;5044183;28;20031;-74
2023/07/03 08:26:25;;;;;;;15.70;3.30;;;;;;;16.28;100.00;99222.25;5044856;28;20025;-74
2023/07/03 08:28:50;;;;;;;17.27;2.95;;;;;;;16.19;100.00;99240.16;5060656;28;20036;-75
2023/07/03 08:31:16;;;;;;;14.98;3.13;;;;;;;16.08;100.00;99233.94;5060257;28;20349;-74
2023/07/03 08:33:41;;;;;;;15.85;4.22;;;;;;;16.14;100.00;99222.00;5043974;28;20115;-75
2023/07/03 08:36:07;;;;;;;15.57;3.17;;;;;;;16.23;100.00;99233.13;5046131;28;20146;-74
2023/07/03 08:38:32;;;;;;;12.55;2.95;;;;;;;16.12;100.00;99239.66;5045602;28;20036;-74
2023/07/03 08:40:59;;;;;;;15.43;4.45;;;;;;;16.00;100.00;99233.72;5062784;28;20481;-75
2023/07/03 08:43:32;;;;;;;16.85;3.53;;;;;;;16.09;100.00;99245.63;5063192;28;20053;-74
2023/07/03 08:45:57;;;;;;;14.77;3.15;;;;;;;16.26;100.00;99254.28;5046640;28;20029;-76
2023/07/03 08:48:25;;;;;;;14.60;3.10;;;;;;;16.31;100.00;99243.41;5065343;28;20087;-75
2023/07/03 08:50:55;;;;;;;15.18;3.00;;;;;;;16.44;100.00;99250.97;5049718;28;20438;-75
2023/07/03 08:53:27;;;;;;;14.93;2.72;;;;;;;16.42;100.00;99250.47;5066005;28;20426;-74
2023/07/03 08:56:01;;;;;;;21.80;3.50;;;;;;;16.29;100.00;99232.03;5063133;28;20092;-75
2023/07/03 08:58:26;;;;;;;19.27;3.85;;;;;;;16.48;100.00;99261.28;5062181;28;20029;-75
2023/07/03 09:00:59;;;;;;;15.40;2.95;;;;;;;16.32;100.00;99261.31;5061238;28;20162;-74
2023/07/03 09:03:32;;;;;;;14.90;3.35;;;;;;;16.43;100.00;99264.84;5063216;28;20040;-73
2023/07/03 09:06:07;;;;;;;14.10;2.90;;;;;;;16.51;100.00;99261.56;5061112;28;20024;-75
2023/07/03 09:08:41;;;;;;;;;;;;;;;16.60;100.00;99267.25;5045619;28;20056;-71
2023/07/03 09:11:08;;;;;;;18.10;3.33;;;;;;;16.32;100.00;99226.03;5075335;28;19901;-73
2023/07/03 09:13:40;;;;;;;18.95;3.15;;;;;;;16.72;100.00;99270.47;5056561;28;20043;-73
2023/07/03 09:16:26;;;;;;;15.90;3.28;;;;;;;16.57;100.00;99265.06;5065725;28;20027;-73
2023/07/03 09:19:02;;;;;;;11.68;2.78;;;;;;;16.51;100.00;99258.84;5061291;28;20037;-76
2023/07/03 09:21:29;;;;;;;15.68;3.42;;;;;;;16.65;100.00;99272.63;5053167;28;20504;-75
2023/07/03 09:24:01;;;;;;;19.55;3.15;;;;;;;16.86;100.00;99295.97;5054755;28;20100;-73
2023/07/03 09:26:42;;;;;;;13.90;3.20;;;;;;;17.01;100.00;99283.41;5056202;28;20012;-72
2023/07/03 09:29:10;;;;;;;11.57;3.38;;;;;;;17.05;100.00;99295.34;5055198;28;20038;-73
2023/07/03 09:31:35;;;;;;;18.20;3.60;;;;;;;17.10;100.00;99303.47;5049002;28;20036;-73
2023/07/03 09:34:01;;;;;;;13.73;3.00;;;;;;;17.16;100.00;99307.00;5011752;28;20029;-74
2023/07/03 09:36:30;;;;;;;9.65;2.50;;;;;;;17.37;100.00;99297.63;5028256;28;20021;-74
2023/07/03 09:38:55;;;;;;;9.93;2.72;;;;;;;17.45;98.44;99309.81;5068944;28;20028;-73
2023/07/03 09:41:29;;;;;;;12.18;3.53;;;;;;;17.60;97.42;99307.00;5045901;28;20041;-74
2023/07/03 09:43:55;;;;;;;11.52;2.63;;;;;;;17.58;95.92;99325.50;5021623;28;20080;-73
2023/07/03 09:46:22;;;;;;;13.63;2.97;;;;;;;17.61;94.13;99312.19;5037557;28;20041;-73
2023/07/03 09:48:48;;;;;;;15.85;3.40;;;;;;;17.92;93.14;99327.50;5035868;28;20057;-72
2023/07/03 09:51:20;;;;;;;14.77;3.65;;;;;;;18.11;92.59;99328.41;5038077;28;20032;-74
2023/07/03 09:53:45;;;;;;;11.00;3.22;;;;;;;18.30;92.45;99328.53;5038835;28;20067;-75
2023/07/03 09:56:20;;;;;;;13.05;3.20;;;;;;;18.40;91.96;99341.25;5039454;28;20539;-74
2023/07/03 09:58:52;;;;;;;11.23;3.55;;;;;;;18.30;91.87;99342.97;5024183;28;20211;-74
2023/07/03 10:01:29;;;;;;;14.13;3.10;;;;;;;18.26;90.92;99344.63;5045588;28;20080;-73
2023/07/03 10:04:12;;;;;;;12.65;3.00;;;;;;;18.11;91.22;99341.22;5047075;28;20030;-73
2023/07/03 10:06:39;;;;;;;12.15;3.40;;;;;;;18.26;90.35;99347.34;5027929;28;20173;-73
2023/07/03 10:09:24;;;;;;;10.45;3.00;;;;;;;18.45;90.01;99363.81;5060984;28;20067;-73
2023/07/03 10:12:09;;;;;;;11.52;3.30;;;;;;;18.12;87.02;99360.00;5056733;28;20029;-73
2023/07/03 10:14:48;;;;;;;20.33;4.13;;;;;;;18.49;86.69;99355.88;5036427;28;20021;-74
2023/07/03 10:17:15;;;;;;;15.20;3.42;;;;;;;18.29;88.20;99357.69;5042170;28;20439;-73
2023/07/03 10:19:52;;;;;;;13.98;2.67;;;;;;;17.98;87.70;99365.28;5067046;28;20025;-74
2023/07/03 10:22:18;;;;;;;10.07;3.03;;;;;;;18.03;87.11;99375.31;5061817;28;20021;-75
2023/07/03 10:24:46;;;;;;;13.75;3.10;;;;;;;17.61;90.07;99372.03;5042992;28;20113;-73
2023/07/03 10:27:13;;;;;;;12.63;2.78;;;;;;;17.45;93.19;99389.50;5042310;28;20029;-74
2023/07/03 10:29:44;;;;;;;17.33;3.42;;;;;;;17.47;94.93;99387.31;5038326;28;20573;-73
2023/07/03 10:32:13;;;;;;;11.82;2.80;;;;;;;17.33;96.40;99373.50;5058926;28;20021;-73
2023/07/03 10:35:01;;;;;;;13.23;2.83;;;;;;;17.64;96.13;99380.69;5059777;28;20028;-72
2023/07/03 10:37:28;;;;;;;16.30;3.40;;;;;;;17.72;96.75;99359.16;5059697;28;20035;-73
2023/07/03 10:40:00;;;;;;;12.48;2.85;;;;;;;17.67;96.24;99383.66;5042010;28;20108;-73
2023/07/03 10:42:36;;;;;;;12.50;3.20;;;;;;;18.04;94.11;99393.25;5060252;28;20024;-72
2023/07/03 10:45:20;;;;;;;13.18;2.42;;;;;;;17.99;93.23;99387.88;5041309;28;20079;-72
2023/07/03 10:48:01;;;;;;;13.43;2.97;;;;;;;18.07;92.56;99384.53;5059797;28;20032;-73
2023/07/03 10:50:40;;;;;;;16.02;3.03;;;;;;;18.41;91.77;99389.16;5043423;28;20397;-73
2023/07/03 10:53:11;;;;;;;7.78;2.00;;;;;;;18.59;91.44;99396.63;5042808;28;20021;-73
2023/07/03 10:55:44;;;;;;;13.10;3.05;;;;;;;18.59;90.39;99404.00;5042467;28;20025;-73
2023/07/03 10:58:28;;;;;;;10.40;3.13;;;;;;;18.60;87.40;99402.91;5059855;28;20043;-73
2023/07/03 11:00:57;;;;;;;13.52;2.72;;;;;;;18.92;86.61;99407.81;5041683;28;20044;-72
2023/07/03 11:03:34;;;;;;;16.63;3.25;;;;;;;18.54;86.24;99385.78;5041554;28;20093;-75
2023/07/03 11:06:04;;;;;;;10.98;2.70;;;;;;;18.31;87.96;99403.69;5058575;28;20511;-75
2023/07/03 11:08:36;;;;;;;10.77;2.35;;;;;;;18.08;90.05;99406.03;5041410;28;20032;-74
2023/07/03 11:11:16;;;;;;;15.18;2.80;;;;;;;18.01;91.96;99415.59;5037036;28;20084;-76
2023/07/03 11:14:06;;;;;;;16.00;3.95;;;;;;;18.01;92.78;99421.03;5041120;28;20032;-74
2023/07/03 11:16:55;;;;;;;12.73;3.10;;;;;;;18.43;91.86;99428.63;5063052;28;20108;-75
2023/07/03 11:19:36;;;;;;;10.45;2.85;;;;;;;18.21;92.24;99433.69;5045907;28;20029;-74
2023/07/03 11:22:12;;;;;;;14.25;2.75;;;;;;;18.11;91.96;99442.75;5063071;28;20028;-75
2023/07/03 11:24:43;;;;;;;15.65;3.63;;;;;;;18.07;90.97;99447.94;5048398;28;20033;-75